Terminal Aerodrome Forecast
Issued by NWS

Home | Current Version | Previous Version | Graphics & Text | Print | Product List | Glossary On
Versions: 1 2 3 4 5 6 7 8 9 10 11 12 13 14
000
FTUS43 KABR 191124
TAFPIR
TAF
KPIR 191124Z 1912/2012 03008KT P6SM OVC250
     FM192100 10008KT P6SM OVC100
     FM200600 VRB05KT P6SM OVC050
      TEMPO 2008/2012 -RA=

USA.gov is the U.S. government's official web portal to all federal, state and local government web resources and services.